Time;durP1;ratioP1;P1;durP2;ratioP2;P2;SDS_P1;SDS_P2;PMS_P1;PMS_P2;Temp;Humidity;BMP_temperature;BMP_pressure;BME280_temperature;BME280_humidity;BME280_pressure;Samples;Min_cycle;Max_cycle;Signal;HPM_P1;HPM_P2
2021/07/28 00:01:23;;;;;;;9.32;3.10;;;;;;;;;;5053616;28;20025;-76
2021/07/28 00:03:50;;;;;;;6.85;3.20;;;;;;;;;;5040753;28;20030;-72
2021/07/28 00:06:20;;;;;;;6.38;2.53;;;;;;;;;;5033539;28;20030;-76
2021/07/28 00:08:46;;;;;;;8.85;2.83;;;;;;;;;;5033530;28;20021;-77
2021/07/28 00:11:12;;;;;;;4.93;2.60;;;;;;;;;;5032905;28;20041;-74
2021/07/28 00:13:38;;;;;;;6.00;2.53;;;;;;;;;;5033077;28;20108;-75
2021/07/28 00:16:10;;;;;;;6.25;2.72;;;;;;;;;;5032437;28;20041;-76
2021/07/28 00:18:43;;;;;;;7.30;2.80;;;;;;;;;;5033347;28;20024;-76
2021/07/28 00:23:54;;;;;;;4.95;2.75;;;;;;;;;;5032979;28;20075;-74
2021/07/28 00:26:20;;;;;;;6.07;2.67;;;;;;;;;;5033211;28;20029;-78
2021/07/28 00:28:46;;;;;;;7.75;2.85;;;;;;;;;;5033122;28;20021;-74
2021/07/28 00:31:12;;;;;;;5.38;2.65;;;;;;;;;;5032988;28;20032;-76
2021/07/28 00:33:38;;;;;;;4.13;2.60;;;;;;;;;;5033045;28;20013;-75
2021/07/28 00:36:04;;;;;;;7.38;2.92;;;;;;;;;;5033347;28;20091;-75
2021/07/28 00:38:30;;;;;;;4.68;2.60;;;;;;;;;;5032672;28;20490;-74
2021/07/28 00:40:56;;;;;;;7.47;3.30;;;;;;;;;;5033104;28;20044;-75
2021/07/28 00:43:25;;;;;;;8.10;3.03;;;;;;;;;;5032807;28;20029;-76
2021/07/28 00:45:52;;;;;;;5.50;2.72;;;;;;;;;;5033034;28;20040;-75
2021/07/28 00:48:18;;;;;;;8.10;2.83;;;;;;;;;;5032661;28;20551;-75
2021/07/28 00:50:44;;;;;;;9.30;2.92;;;;;;;;;;5032751;28;20421;-76
2021/07/28 00:53:20;;;;;;;8.80;2.78;;;;;;;;;;5032705;28;20021;-75
2021/07/28 00:55:47;;;;;;;8.30;2.50;;;;;;;;;;5032835;28;20029;-76
2021/07/28 00:58:13;;;;;;;9.05;3.55;;;;;;;;;;5032560;28;20017;-77
2021/07/28 01:00:40;;;;;;;4.72;2.30;;;;;;;;;;5032953;28;20060;-73
2021/07/28 01:03:06;;;;;;;6.43;3.00;;;;;;;;;;5038829;28;20021;-73
2021/07/28 01:05:32;;;;;;;10.82;3.45;;;;;;;;;;5052481;28;20044;-75
2021/07/28 01:07:58;;;;;;;9.40;2.67;;;;;;;;;;5052377;28;20017;-75
2021/07/28 01:10:24;;;;;;;5.65;2.80;;;;;;;;;;5052418;28;20118;-76
2021/07/28 01:12:55;;;;;;;6.80;2.80;;;;;;;;;;5052374;28;20162;-74
2021/07/28 01:18:03;;;;;;;6.07;2.55;;;;;;;;;;5052526;28;20029;-75
2021/07/28 01:20:37;;;;;;;9.65;2.90;;;;;;;;;;5052573;28;20079;-77
2021/07/28 01:23:05;;;;;;;5.35;2.63;;;;;;;;;;5052183;28;20013;-74
2021/07/28 01:25:33;;;;;;;6.32;2.58;;;;;;;;;;5052097;28;20025;-76
2021/07/28 01:28:00;;;;;;;7.22;2.60;;;;;;;;;;5052264;28;20421;-74
2021/07/28 01:30:26;;;;;;;6.60;2.70;;;;;;;;;;5052493;28;20021;-76
2021/07/28 01:32:52;;;;;;;5.55;2.67;;;;;;;;;;5052221;28;20104;-74
2021/07/28 01:35:20;;;;;;;8.98;3.00;;;;;;;;;;5052095;28;20051;-73
2021/07/28 01:37:46;;;;;;;8.45;2.70;;;;;;;;;;5052192;28;20021;-76
2021/07/28 01:40:13;;;;;;;8.43;2.95;;;;;;;;;;5052373;28;20079;-76
2021/07/28 01:42:48;;;;;;;6.50;2.67;;;;;;;;;;5052107;28;20043;-73
2021/07/28 01:45:15;;;;;;;8.20;2.80;;;;;;;;;;5051952;28;20031;-74
2021/07/28 01:47:41;;;;;;;5.95;2.90;;;;;;;;;;5052173;28;20063;-77
2021/07/28 01:50:08;;;;;;;7.07;2.63;;;;;;;;;;5052135;28;20021;-74
2021/07/28 01:52:38;;;;;;;5.78;2.88;;;;;;;;;;5052075;28;20032;-76
2021/07/28 01:55:05;;;;;;;5.97;2.70;;;;;;;;;;5051739;28;20438;-74
2021/07/28 01:57:31;;;;;;;8.38;2.95;;;;;;;;;;5051988;28;20064;-75
2021/07/28 02:00:00;;;;;;;8.13;3.10;;;;;;;;;;5052189;28;20029;-74
2021/07/28 02:02:34;;;;;;;9.47;3.17;;;;;;;;;;5050415;28;20079;-73
2021/07/28 02:05:00;;;;;;;7.40;2.92;;;;;;;;;;5032008;28;20025;-74
2021/07/28 02:07:26;;;;;;;7.63;2.88;;;;;;;;;;5031775;28;20035;-76
2021/07/28 02:09:52;;;;;;;8.55;3.20;;;;;;;;;;5031869;28;20042;-77
2021/07/28 02:12:18;;;;;;;7.90;3.67;;;;;;;;;;5031820;28;20386;-73
2021/07/28 02:14:44;;;;;;;9.13;2.70;;;;;;;;;;5031607;28;20088;-73
2021/07/28 02:17:11;;;;;;;10.10;2.72;;;;;;;;;;5031775;28;20488;-73
2021/07/28 02:19:37;;;;;;;9.48;2.88;;;;;;;;;;5032008;28;20033;-74
2021/07/28 02:22:03;;;;;;;7.78;2.67;;;;;;;;;;5031612;28;20096;-73
2021/07/28 02:24:29;;;;;;;5.00;2.28;;;;;;;;;;5031580;28;20064;-76
2021/07/28 02:26:55;;;;;;;11.00;3.15;;;;;;;;;;5031215;28;20113;-73
2021/07/28 02:29:21;;;;;;;7.75;3.17;;;;;;;;;;5031853;28;20152;-74
2021/07/28 02:31:47;;;;;;;6.93;2.97;;;;;;;;;;5031695;28;20040;-76
2021/07/28 02:34:13;;;;;;;6.35;3.03;;;;;;;;;;5031517;28;20064;-77
2021/07/28 02:36:39;;;;;;;7.57;3.38;;;;;;;;;;5031540;28;20513;-76
2021/07/28 02:39:05;;;;;;;8.88;3.00;;;;;;;;;;5032935;28;20489;-75
2021/07/28 02:41:31;;;;;;;9.10;2.85;;;;;;;;;;5035113;28;20029;-77
2021/07/28 02:43:57;;;;;;;7.43;3.05;;;;;;;;;;5035009;28;20025;-75
2021/07/28 02:46:23;;;;;;;8.70;2.67;;;;;;;;;;5034823;28;20513;-76
2021/07/28 02:48:49;;;;;;;11.63;3.05;;;;;;;;;;5034925;28;20028;-75
2021/07/28 02:51:15;;;;;;;9.13;2.75;;;;;;;;;;5035463;28;20029;-73
2021/07/28 02:53:41;;;;;;;6.60;2.70;;;;;;;;;;5034997;28;20477;-75
2021/07/28 02:56:07;;;;;;;8.43;2.90;;;;;;;;;;5034972;28;20033;-74
2021/07/28 02:58:33;;;;;;;6.03;2.60;;;;;;;;;;5035025;28;20033;-74
2021/07/28 03:00:59;;;;;;;5.78;2.85;;;;;;;;;;5035044;28;20390;-75
2021/07/28 03:03:25;;;;;;;11.32;3.13;;;;;;;;;;5043947;28;20504;-73
2021/07/28 03:05:51;;;;;;;9.90;3.50;;;;;;;;;;5054734;28;20468;-75
2021/07/28 03:08:18;;;;;;;8.52;3.17;;;;;;;;;;5054773;28;20439;-75
2021/07/28 03:10:44;;;;;;;6.65;2.63;;;;;;;;;;5054626;28;20408;-77
2021/07/28 03:13:10;;;;;;;7.95;3.40;;;;;;;;;;5054472;28;20027;-75
2021/07/28 03:15:36;;;;;;;7.78;2.90;;;;;;;;;;5054530;28;20024;-75
2021/07/28 03:18:02;;;;;;;8.27;2.83;;;;;;;;;;5054551;28;20025;-73
2021/07/28 03:20:28;;;;;;;8.20;3.00;;;;;;;;;;5054729;28;20025;-77
2021/07/28 03:22:54;;;;;;;5.05;2.70;;;;;;;;;;5054321;28;20032;-75
2021/07/28 03:25:20;;;;;;;7.45;3.13;;;;;;;;;;5054275;28;20393;-76
2021/07/28 03:27:46;;;;;;;7.85;2.85;;;;;;;;;;5054246;28;20385;-75
2021/07/28 03:30:12;;;;;;;5.38;2.70;;;;;;;;;;5054745;28;20021;-75
2021/07/28 03:32:38;;;;;;;9.35;2.92;;;;;;;;;;5054121;28;20029;-75
2021/07/28 03:35:04;;;;;;;7.28;3.08;;;;;;;;;;5054116;28;20092;-74
2021/07/28 03:37:30;;;;;;;6.05;2.95;;;;;;;;;;5054083;28;20742;-75
2021/07/28 03:40:00;;;;;;;8.38;3.25;;;;;;;;;;5054210;28;20107;-74
2021/07/28 03:42:28;;;;;;;6.70;3.07;;;;;;;;;;5054108;28;20504;-76
2021/07/28 03:44:54;;;;;;;9.30;2.90;;;;;;;;;;5053975;28;20029;-76
2021/07/28 03:47:20;;;;;;;7.68;3.22;;;;;;;;;;5053878;28;20025;-73
2021/07/28 03:49:46;;;;;;;7.05;3.30;;;;;;;;;;5053760;28;20469;-76
2021/07/28 03:52:12;;;;;;;9.77;3.40;;;;;;;;;;5036017;28;20017;-75
2021/07/28 03:54:38;;;;;;;6.63;3.10;;;;;;;;;;5053636;28;20057;-75
2021/07/28 03:57:04;;;;;;;5.70;3.05;;;;;;;;;;5053687;28;20084;-76
2021/07/28 03:59:30;;;;;;;8.15;3.10;;;;;;;;;;5053708;28;20142;-78
2021/07/28 04:01:56;;;;;;;9.73;3.78;;;;;;;;;;5053604;28;20017;-75
2021/07/28 04:04:22;;;;;;;7.95;2.80;;;;;;;;;;5036064;28;20037;-77
2021/07/28 04:06:48;;;;;;;7.18;3.42;;;;;;;;;;5033483;28;20025;-73
2021/07/28 04:09:14;;;;;;;8.70;3.30;;;;;;;;;;5033207;28;20124;-75
2021/07/28 04:11:40;;;;;;;6.80;3.22;;;;;;;;;;5033749;28;20017;-74
2021/07/28 04:14:06;;;;;;;7.57;3.05;;;;;;;;;;5033198;28;20044;-76
2021/07/28 04:16:32;;;;;;;9.35;3.35;;;;;;;;;;5033438;28;20541;-73
2021/07/28 04:18:58;;;;;;;5.88;3.17;;;;;;;;;;5033223;28;20540;-74
2021/07/28 04:21:24;;;;;;;7.65;3.03;;;;;;;;;;5033522;28;20026;-74
2021/07/28 04:23:50;;;;;;;8.55;3.40;;;;;;;;;;5033427;28;20030;-75
2021/07/28 04:26:16;;;;;;;8.70;3.35;;;;;;;;;;5032954;28;20036;-74
2021/07/28 04:28:42;;;;;;;7.03;3.25;;;;;;;;;;5032933;28;20025;-76
2021/07/28 04:31:08;;;;;;;11.15;3.90;;;;;;;;;;5033494;28;20096;-77
2021/07/28 04:33:34;;;;;;;9.75;3.70;;;;;;;;;;5033126;28;20545;-75
2021/07/28 04:36:00;;;;;;;7.50;3.00;;;;;;;;;;5033095;28;20026;-75
2021/07/28 04:38:27;;;;;;;9.80;3.40;;;;;;;;;;5032721;28;20061;-74
2021/07/28 04:40:53;;;;;;;8.18;3.45;;;;;;;;;;5033203;28;20029;-76
2021/07/28 04:43:19;;;;;;;8.05;2.90;;;;;;;;;;5033141;28;20029;-76
2021/07/28 04:45:45;;;;;;;7.35;2.97;;;;;;;;;;5032753;28;20074;-74
2021/07/28 04:48:11;;;;;;;8.07;3.00;;;;;;;;;;5032723;28;20035;-76
2021/07/28 04:50:37;;;;;;;8.57;3.15;;;;;;;;;;5015057;28;20022;-75
2021/07/28 04:53:04;;;;;;;8.20;3.13;;;;;;;;;;5032944;28;20044;-75
2021/07/28 04:55:30;;;;;;;6.10;2.95;;;;;;;;;;5032681;28;20037;-76
2021/07/28 04:57:57;;;;;;;8.43;3.22;;;;;;;;;;5032507;28;20057;-75
2021/07/28 05:00:23;;;;;;;8.55;3.47;;;;;;;;;;5015129;28;20147;-76
2021/07/28 05:02:49;;;;;;;5.68;2.78;;;;;;;;;;5036289;28;20020;-75
2021/07/28 05:05:15;;;;;;;10.77;2.95;;;;;;;;;;5052585;28;20028;-75
2021/07/28 05:07:41;;;;;;;8.50;3.13;;;;;;;;;;5052294;28;20064;-73
2021/07/28 05:10:07;;;;;;;10.85;3.88;;;;;;;;;;5052290;28;20045;-74
2021/07/28 05:12:33;;;;;;;8.27;3.22;;;;;;;;;;5052567;28;20029;-76
2021/07/28 05:15:00;;;;;;;8.80;3.85;;;;;;;;;;5052431;28;20420;-75
2021/07/28 05:17:26;;;;;;;6.85;3.70;;;;;;;;;;5052254;28;20487;-76
2021/07/28 05:19:52;;;;;;;9.73;3.35;;;;;;;;;;5052285;28;20057;-74
2021/07/28 05:22:18;;;;;;;9.38;3.45;;;;;;;;;;5052499;28;20477;-74
2021/07/28 05:24:45;;;;;;;8.05;3.40;;;;;;;;;;5052362;28;20032;-75
2021/07/28 05:27:11;;;;;;;8.63;3.17;;;;;;;;;;5051762;28;20029;-74
2021/07/28 05:29:37;;;;;;;9.95;3.60;;;;;;;;;;5052181;28;20078;-75
2021/07/28 05:32:03;;;;;;;8.15;3.30;;;;;;;;;;5052374;28;20491;-75
2021/07/28 05:34:29;;;;;;;8.25;3.35;;;;;;;;;;5052428;28;20032;-74
2021/07/28 05:36:57;;;;;;;9.10;3.33;;;;;;;;;;5052194;28;20025;-75
2021/07/28 05:39:24;;;;;;;8.48;3.47;;;;;;;;;;5052059;28;20018;-74
2021/07/28 05:41:50;;;;;;;8.35;3.70;;;;;;;;;;5034556;28;20025;-73
2021/07/28 05:44:16;;;;;;;8.05;3.45;;;;;;;;;;5052186;28;20075;-74
2021/07/28 05:46:42;;;;;;;8.13;3.47;;;;;;;;;;5052134;28;20040;-75
2021/07/28 05:49:08;;;;;;;7.22;3.63;;;;;;;;;;5051937;28;20365;-72
2021/07/28 05:51:34;;;;;;;9.57;3.33;;;;;;;;;;5052153;28;20461;-75
2021/07/28 05:54:00;;;;;;;10.15;3.97;;;;;;;;;;5052043;28;20021;-77
2021/07/28 05:56:28;;;;;;;9.98;3.85;;;;;;;;;;5052128;28;20369;-74
2021/07/28 05:58:54;;;;;;;7.80;4.05;;;;;;;;;;5051693;28;20384;-74
2021/07/28 06:01:20;;;;;;;9.27;4.07;;;;;;;;;;5052127;28;20029;-76
2021/07/28 06:03:47;;;;;;;8.23;3.50;;;;;;;;;;5039386;28;20440;-76
2021/07/28 06:06:13;;;;;;;13.77;4.18;;;;;;;;;;5031851;28;20104;-75
2021/07/28 06:08:39;;;;;;;12.93;4.07;;;;;;;;;;5031683;28;20029;-74
2021/07/28 06:11:05;;;;;;;7.90;3.72;;;;;;;;;;5031710;28;20050;-74
2021/07/28 06:13:31;;;;;;;9.18;4.15;;;;;;;;;;5032717;28;20021;-75
2021/07/28 06:15:57;;;;;;;7.43;3.92;;;;;;;;;;5035739;28;20067;-74
2021/07/28 06:18:23;;;;;;;8.02;3.83;;;;;;;;;;5035659;28;20035;-74
2021/07/28 06:20:49;;;;;;;8.60;4.10;;;;;;;;;;5035816;28;20533;-73
2021/07/28 06:23:15;;;;;;;7.90;3.72;;;;;;;;;;5035698;28;20108;-73
2021/07/28 06:25:41;;;;;;;8.75;3.95;;;;;;;;;;5035517;28;20072;-77
2021/07/28 06:28:07;;;;;;;6.93;3.28;;;;;;;;;;5035195;28;20029;-75
2021/07/28 06:30:33;;;;;;;9.68;3.42;;;;;;;;;;5035582;28;20026;-74
2021/07/28 06:32:59;;;;;;;9.00;3.58;;;;;;;;;;5035543;28;20544;-74
2021/07/28 06:35:25;;;;;;;7.30;3.45;;;;;;;;;;5035631;28;20029;-75
2021/07/28 06:37:52;;;;;;;9.27;3.75;;;;;;;;;;5034699;28;20030;-72
2021/07/28 06:40:18;;;;;;;7.07;3.20;;;;;;;;;;5035049;28;20493;-76
2021/07/28 06:42:44;;;;;;;6.65;3.35;;;;;;;;;;5035357;28;20028;-74
2021/07/28 06:45:10;;;;;;;8.82;3.50;;;;;;;;;;5035435;28;20030;-77
2021/07/28 06:47:36;;;;;;;8.25;3.50;;;;;;;;;;5034803;28;20040;-77
2021/07/28 06:50:03;;;;;;;8.52;3.60;;;;;;;;;;5034676;28;20048;-74
2021/07/28 06:52:29;;;;;;;8.85;3.47;;;;;;;;;;5035301;28;20398;-77
2021/07/28 06:54:55;;;;;;;8.75;3.42;;;;;;;;;;5035179;28;20509;-75
2021/07/28 06:57:22;;;;;;;9.13;3.60;;;;;;;;;;5034780;28;20029;-74
2021/07/28 06:59:48;;;;;;;9.00;3.65;;;;;;;;;;5034938;28;20108;-74
2021/07/28 07:02:14;;;;;;;9.90;4.10;;;;;;;;;;5034806;28;20447;-75
2021/07/28 07:04:40;;;;;;;5.78;3.10;;;;;;;;;;5054523;28;20029;-75
2021/07/28 07:07:06;;;;;;;9.65;3.83;;;;;;;;;;5054522;28;20029;-75
2021/07/28 07:09:32;;;;;;;7.70;3.33;;;;;;;;;;5054208;28;20405;-75
2021/07/28 07:11:58;;;;;;;7.78;2.92;;;;;;;;;;5054817;28;20071;-75
2021/07/28 07:14:24;;;;;;;8.05;3.63;;;;;;;;;;5054302;28;20032;-75
2021/07/28 07:16:50;;;;;;;8.38;3.30;;;;;;;;;;5054568;28;20081;-76
2021/07/28 07:19:16;;;;;;;7.38;3.30;;;;;;;;;;5054314;28;20029;-74
2021/07/28 07:21:42;;;;;;;7.85;3.47;;;;;;;;;;5054633;28;20538;-75
2021/07/28 07:24:08;;;;;;;9.77;3.67;;;;;;;;;;5053662;28;20111;-74
2021/07/28 07:26:34;;;;;;;8.57;3.28;;;;;;;;;;5054115;28;20025;-76
2021/07/28 07:29:00;;;;;;;8.75;3.38;;;;;;;;;;5054150;28;20025;-76
2021/07/28 07:31:26;;;;;;;8.90;3.83;;;;;;;;;;5054445;28;20017;-74
2021/07/28 07:33:52;;;;;;;7.78;3.45;;;;;;;;;;5054138;28;20538;-77
2021/07/28 07:36:19;;;;;;;9.75;3.30;;;;;;;;;;5054278;28;20029;-75
2021/07/28 07:38:45;;;;;;;5.43;3.10;;;;;;;;;;5053813;28;20025;-75
2021/07/28 07:41:11;;;;;;;8.57;3.10;;;;;;;;;;5054116;28;20485;-77
2021/07/28 07:43:38;;;;;;;6.18;2.90;;;;;;;;;;5053797;28;20029;-76
2021/07/28 07:46:04;;;;;;;6.63;3.30;;;;;;;;;;5054132;28;20033;-75
2021/07/28 07:48:30;;;;;;;7.88;2.90;;;;;;;;;;5053749;28;20032;-75
2021/07/28 07:50:56;;;;;;;6.35;2.90;;;;;;;;;;5053560;28;20523;-77
2021/07/28 07:53:22;;;;;;;5.28;2.58;;;;;;;;;;5053790;28;20104;-77
2021/07/28 07:55:48;;;;;;;5.75;2.72;;;;;;;;;;5054133;28;20041;-74
2021/07/28 07:58:14;;;;;;;7.50;2.97;;;;;;;;;;5053635;28;20033;-75
2021/07/28 08:00:40;;;;;;;5.13;2.45;;;;;;;;;;5053756;28;20021;-76
2021/07/28 08:03:06;;;;;;;7.90;2.53;;;;;;;;;;5046530;28;20399;-76
2021/07/28 08:05:32;;;;;;;6.60;2.78;;;;;;;;;;5033833;28;20025;-74
2021/07/28 08:07:59;;;;;;;4.28;2.40;;;;;;;;;;5033370;28;20470;-75
2021/07/28 08:10:25;;;;;;;4.38;2.15;;;;;;;;;;5033321;28;20069;-74
2021/07/28 08:12:51;;;;;;;4.07;2.22;;;;;;;;;;5033536;28;20025;-75
2021/07/28 08:15:17;;;;;;;4.60;2.42;;;;;;;;;;5033502;28;20026;-76
2021/07/28 08:17:43;;;;;;;6.22;2.50;;;;;;;;;;5033410;28;20041;-77
2021/07/28 08:20:09;;;;;;;4.72;2.30;;;;;;;;;;5033362;28;20033;-75
2021/07/28 08:22:35;;;;;;;4.93;2.53;;;;;;;;;;5033494;28;20029;-77
2021/07/28 08:25:01;;;;;;;4.45;2.20;;;;;;;;;;5033311;28;20083;-74
2021/07/28 08:27:27;;;;;;;4.78;2.30;;;;;;;;;;5033150;28;20021;-77
2021/07/28 08:29:54;;;;;;;5.15;2.50;;;;;;;;;;5033200;28;20100;-73
2021/07/28 08:32:20;;;;;;;7.15;2.47;;;;;;;;;;5033181;28;20018;-80
2021/07/28 08:34:46;;;;;;;6.10;2.10;;;;;;;;;;5033112;28;20013;-75
2021/07/28 08:37:12;;;;;;;4.43;2.25;;;;;;;;;;5032497;28;20021;-77
2021/07/28 08:39:38;;;;;;;5.28;2.20;;;;;;;;;;5032955;28;20049;-76
2021/07/28 08:42:05;;;;;;;4.65;1.90;;;;;;;;;;5032998;28;20030;-77
2021/07/28 08:44:35;;;;;;;4.30;2.15;;;;;;;;;;5032903;28;20026;-76
2021/07/28 08:47:02;;;;;;;3.75;2.17;;;;;;;;;;5032824;28;20037;-78
2021/07/28 08:49:28;;;;;;;3.33;1.75;;;;;;;;;;5032645;28;20021;-76
2021/07/28 08:51:54;;;;;;;3.10;1.70;;;;;;;;;;5032878;28;20021;-74
2021/07/28 08:54:20;;;;;;;4.13;2.10;;;;;;;;;;5032468;28;20159;-77
2021/07/28 08:56:47;;;;;;;2.75;2.00;;;;;;;;;;5032861;28;20155;-77
2021/07/28 08:59:26;;;;;;;5.30;1.52;;;;;;;;;;5032530;28;20025;-75
2021/07/28 09:01:52;;;;;;;5.43;2.10;;;;;;;;;;5032526;28;20405;-77
2021/07/28 09:04:18;;;;;;;5.28;2.00;;;;;;;;;;5048870;28;20025;-77
2021/07/28 09:06:44;;;;;;;4.93;2.00;;;;;;;;;;5052637;28;20392;-76
2021/07/28 09:09:10;;;;;;;5.45;2.10;;;;;;;;;;5052080;28;20095;-77
2021/07/28 09:11:50;;;;;;;4.00;1.80;;;;;;;;;;5052560;28;20021;-76
2021/07/28 09:14:19;;;;;;;5.22;1.80;;;;;;;;;;5052107;28;20016;-76
2021/07/28 09:16:45;;;;;;;4.07;1.90;;;;;;;;;;5052656;28;20020;-76
2021/07/28 09:19:11;;;;;;;2.72;1.60;;;;;;;;;;5052338;28;20025;-77
2021/07/28 09:21:38;;;;;;;4.93;2.00;;;;;;;;;;5052483;28;20029;-74
2021/07/28 09:24:12;;;;;;;4.47;2.10;;;;;;;;;;5052103;28;20024;-79
2021/07/28 09:26:44;;;;;;;2.55;1.75;;;;;;;;;;5034255;28;20061;-77
2021/07/28 09:29:11;;;;;;;4.85;1.73;;;;;;;;;;5052052;28;20134;-75
2021/07/28 09:31:53;;;;;;;4.10;2.00;;;;;;;;;;5052332;28;20142;-75
2021/07/28 09:34:23;;;;;;;4.18;1.80;;;;;;;;;;5052380;28;20021;-76
2021/07/28 09:36:49;;;;;;;3.78;1.63;;;;;;;;;;5052477;28;20029;-78
2021/07/28 09:39:24;;;;;;;3.05;1.80;;;;;;;;;;5051586;28;20131;-75
2021/07/28 09:41:50;;;;;;;5.25;1.92;;;;;;;;;;5052206;28;20025;-76
2021/07/28 09:44:30;;;;;;;4.72;2.33;;;;;;;;;;5051930;28;20057;-77
2021/07/28 09:47:22;;;;;;;2.65;1.80;;;;;;;;;;5052243;28;20048;-75
2021/07/28 09:50:08;;;;;;;5.57;2.20;;;;;;;;;;5052447;28;20562;-77
2021/07/28 09:52:34;;;;;;;2.67;1.50;;;;;;;;;;5055637;28;20032;-76
2021/07/28 09:55:20;;;;;;;2.67;1.75;;;;;;;;;;5056117;28;20028;-77
2021/07/28 09:57:47;;;;;;;3.72;1.83;;;;;;;;;;5056167;28;20489;-77
2021/07/28 10:00:13;;;;;;;3.55;1.85;;;;;;;;;;5055887;28;20021;-75
2021/07/28 10:02:41;;;;;;;3.45;1.88;;;;;;;;;;5052632;28;20079;-76
2021/07/28 10:05:08;;;;;;;4.85;1.80;;;;;;;;;;5036018;28;20561;-78
2021/07/28 10:07:34;;;;;;;3.85;1.67;;;;;;;;;;5035831;28;20057;-73
2021/07/28 10:10:01;;;;;;;2.58;1.55;;;;;;;;;;5035454;28;20041;-74
2021/07/28 10:12:28;;;;;;;3.60;1.80;;;;;;;;;;5035876;28;20422;-73
2021/07/28 10:14:56;;;;;;;3.17;1.50;;;;;;;;;;5035591;28;20496;-75
2021/07/28 10:17:22;;;;;;;4.65;1.75;;;;;;;;;;5035734;28;20025;-73
2021/07/28 10:19:49;;;;;;;3.67;1.70;;;;;;;;;;5035471;28;20053;-78
2021/07/28 10:22:15;;;;;;;5.00;1.90;;;;;;;;;;5035957;28;20033;-77
2021/07/28 10:24:43;;;;;;;4.95;1.55;;;;;;;;;;5035394;28;20040;-77
2021/07/28 10:27:09;;;;;;;2.63;1.67;;;;;;;;;;5035088;28;20025;-77
2021/07/28 10:29:35;;;;;;;2.97;1.48;;;;;;;;;;5035202;28;20497;-78
2021/07/28 10:32:01;;;;;;;5.72;1.80;;;;;;;;;;5035206;28;20025;-76
2021/07/28 10:34:27;;;;;;;3.50;1.48;;;;;;;;;;5035087;28;20545;-73
2021/07/28 10:36:54;;;;;;;4.28;1.75;;;;;;;;;;5035377;28;20044;-73
2021/07/28 10:39:39;;;;;;;2.72;1.77;;;;;;;;;;5034509;28;20516;-75
2021/07/28 10:42:06;;;;;;;2.83;1.17;;;;;;;;;;5034971;28;20052;-74
2021/07/28 10:44:52;;;;;;;3.35;1.48;;;;;;;;;;5034780;28;20397;-74
2021/07/28 10:47:33;;;;;;;3.10;1.60;;;;;;;;;;5034988;28;20474;-77
2021/07/28 10:49:59;;;;;;;2.35;1.60;;;;;;;;;;5034539;28;20092;-77
2021/07/28 10:52:38;;;;;;;2.28;1.50;;;;;;;;;;5034843;28;20021;-78
2021/07/28 10:55:05;;;;;;;3.75;1.65;;;;;;;;;;5034822;28;20033;-77
2021/07/28 10:57:44;;;;;;;4.07;1.98;;;;;;;;;;5034962;28;20052;-77
2021/07/28 11:00:11;;;;;;;1.98;1.55;;;;;;;;;;5034042;28;20025;-77
2021/07/28 11:03:01;;;;;;;4.55;1.80;;;;;;;;;;5037545;28;20021;-77
2021/07/28 11:05:28;;;;;;;4.68;1.95;;;;;;;;;;5044519;28;20111;-77
2021/07/28 11:08:06;;;;;;;2.38;1.45;;;;;;;;;;5054622;28;20052;-75
2021/07/28 11:10:33;;;;;;;3.13;1.75;;;;;;;;;;5054495;28;20124;-76
2021/07/28 11:13:04;;;;;;;4.15;1.88;;;;;;;;;;5054532;28;20027;-76
2021/07/28 11:15:30;;;;;;;2.15;1.60;;;;;;;;;;5054207;28;20477;-76
2021/07/28 11:17:57;;;;;;;2.25;1.58;;;;;;;;;;5054534;28;20124;-77
2021/07/28 11:20:26;;;;;;;5.55;1.80;;;;;;;;;;5036574;28;20039;-77
2021/07/28 11:22:52;;;;;;;2.60;1.67;;;;;;;;;;5054429;28;20086;-77
2021/07/28 11:25:18;;;;;;;3.85;1.80;;;;;;;;;;5054278;28;20025;-74
2021/07/28 11:28:02;;;;;;;3.45;1.95;;;;;;;;;;5054401;28;20024;-75
2021/07/28 11:30:28;;;;;;;2.60;1.55;;;;;;;;;;5054255;28;20492;-75
2021/07/28 11:32:54;;;;;;;6.70;2.00;;;;;;;;;;5054006;28;20021;-74
2021/07/28 11:35:20;;;;;;;4.53;2.00;;;;;;;;;;5053723;28;20033;-75
2021/07/28 11:37:47;;;;;;;2.50;1.70;;;;;;;;;;5054149;28;20074;-75
2021/07/28 11:40:13;;;;;;;3.20;1.80;;;;;;;;;;5054219;28;20108;-75
2021/07/28 11:42:39;;;;;;;2.85;1.80;;;;;;;;;;5054034;28;20092;-74
2021/07/28 11:45:05;;;;;;;3.42;1.60;;;;;;;;;;5053814;28;20457;-77
2021/07/28 11:47:31;;;;;;;6.35;1.77;;;;;;;;;;5054011;28;20493;-77
2021/07/28 11:50:02;;;;;;;2.45;1.60;;;;;;;;;;5053701;28;20023;-75
2021/07/28 11:52:28;;;;;;;2.13;1.50;;;;;;;;;;5053872;28;20475;-75
2021/07/28 11:54:54;;;;;;;2.42;1.60;;;;;;;;;;5053517;28;20108;-77
2021/07/28 11:57:20;;;;;;;4.20;1.75;;;;;;;;;;5053965;28;20114;-75
2021/07/28 11:59:46;;;;;;;3.53;1.80;;;;;;;;;;5053733;28;20029;-78
2021/07/28 12:02:20;;;;;;;4.75;1.67;;;;;;;;;;5053403;28;20028;-75
2021/07/28 12:04:47;;;;;;;4.32;1.85;;;;;;;;;;5033449;28;20044;-76
2021/07/28 12:07:15;;;;;;;2.47;1.60;;;;;;;;;;5033700;28;20021;-76
2021/07/28 12:09:41;;;;;;;4.20;1.80;;;;;;;;;;5033455;28;20053;-76
2021/07/28 12:12:18;;;;;;;2.13;1.52;;;;;;;;;;5033458;28;20021;-74
2021/07/28 12:14:48;;;;;;;5.03;1.75;;;;;;;;;;5032866;28;20056;-76
2021/07/28 12:17:14;;;;;;;4.05;1.73;;;;;;;;;;5033471;28;20493;-76
2021/07/28 12:19:50;;;;;;;2.53;1.60;;;;;;;;;;5033364;28;20026;-76
2021/07/28 12:22:16;;;;;;;2.72;1.58;;;;;;;;;;5033162;28;20029;-75
2021/07/28 12:24:44;;;;;;;4.22;1.70;;;;;;;;;;5032819;28;20394;-77
2021/07/28 12:27:25;;;;;;;4.15;1.90;;;;;;;;;;5032925;28;20106;-75
2021/07/28 12:29:58;;;;;;;4.95;2.00;;;;;;;;;;5033045;28;20431;-74
2021/07/28 12:32:36;;;;;;;4.68;2.05;;;;;;;;;;5032941;28;20091;-75
2021/07/28 12:35:03;;;;;;;6.38;1.80;;;;;;;;;;5032761;28;20034;-75
2021/07/28 12:37:30;;;;;;;4.72;2.10;;;;;;;;;;5033096;28;20029;-76
2021/07/28 12:39:56;;;;;;;3.88;1.90;;;;;;;;;;5032941;28;20033;-76
2021/07/28 12:42:22;;;;;;;6.22;1.90;;;;;;;;;;5032935;28;20034;-76
2021/07/28 12:44:48;;;;;;;3.70;2.00;;;;;;;;;;5032774;28;20026;-76
2021/07/28 12:47:14;;;;;;;5.03;1.70;;;;;;;;;;5033075;28;20065;-75
2021/07/28 12:49:40;;;;;;;2.78;1.60;;;;;;;;;;5032669;28;20025;-77
2021/07/28 12:52:06;;;;;;;3.42;2.05;;;;;;;;;;5015146;28;20497;-78
2021/07/28 12:54:32;;;;;;;4.47;2.03;;;;;;;;;;5032708;28;20542;-74
2021/07/28 12:56:58;;;;;;;4.60;1.83;;;;;;;;;;5033016;28;20398;-76
2021/07/28 12:59:24;;;;;;;7.43;1.77;;;;;;;;;;5032557;28;20327;-77
2021/07/28 13:01:50;;;;;;;2.92;2.05;;;;;;;;;;5032687;28;20029;-75
2021/07/28 13:04:19;;;;;;;2.75;1.60;;;;;;;;;;5048915;28;20366;-75
2021/07/28 13:06:54;;;;;;;3.42;1.88;;;;;;;;;;5034813;28;20082;-76
2021/07/28 13:09:21;;;;;;;3.17;1.75;;;;;;;;;;5052233;28;20485;-76
2021/07/28 13:11:47;;;;;;;3.50;1.67;;;;;;;;;;5052338;28;20438;-75
2021/07/28 13:14:13;;;;;;;2.88;1.40;;;;;;;;;;5052181;28;20029;-76
2021/07/28 13:16:39;;;;;;;3.22;1.50;;;;;;;;;;5052353;28;20029;-77
2021/07/28 13:19:05;;;;;;;3.15;1.70;;;;;;;;;;5052431;28;20425;-75
2021/07/28 13:21:31;;;;;;;4.35;1.80;;;;;;;;;;5052089;28;20029;-76
2021/07/28 13:23:57;;;;;;;3.67;1.85;;;;;;;;;;5051725;28;20488;-77
2021/07/28 13:26:23;;;;;;;4.60;1.77;;;;;;;;;;5051872;28;20036;-76
2021/07/28 13:28:49;;;;;;;3.35;1.83;;;;;;;;;;5052439;28;20024;-76
2021/07/28 13:31:15;;;;;;;3.20;1.35;;;;;;;;;;5052104;28;20021;-74
2021/07/28 13:33:41;;;;;;;3.55;1.63;;;;;;;;;;5051867;28;20031;-75
2021/07/28 13:36:07;;;;;;;2.78;1.70;;;;;;;;;;5052122;28;20029;-75
2021/07/28 13:38:33;;;;;;;3.80;1.75;;;;;;;;;;5052277;28;20026;-76
2021/07/28 13:40:59;;;;;;;3.67;1.55;;;;;;;;;;5052082;28;20056;-74
2021/07/28 13:43:25;;;;;;;5.45;2.03;;;;;;;;;;5051875;28;20049;-75
2021/07/28 13:45:52;;;;;;;5.10;1.80;;;;;;;;;;5051837;28;20028;-76
2021/07/28 13:48:18;;;;;;;3.30;1.65;;;;;;;;;;5052236;28;20029;-77
2021/07/28 13:50:44;;;;;;;4.50;1.65;;;;;;;;;;5051934;28;20025;-76
2021/07/28 13:53:10;;;;;;;4.35;1.77;;;;;;;;;;5051840;28;20028;-76
2021/07/28 13:55:36;;;;;;;6.78;2.00;;;;;;;;;;5051618;28;20031;-76
2021/07/28 13:58:02;;;;;;;5.95;1.77;;;;;;;;;;5052182;28;20029;-75
2021/07/28 14:00:28;;;;;;;4.30;1.70;;;;;;;;;;5052016;28;20124;-75
2021/07/28 14:02:54;;;;;;;3.10;1.75;;;;;;;;;;5046432;28;20494;-74
2021/07/28 14:05:20;;;;;;;4.95;1.75;;;;;;;;;;5031688;28;20029;-74
2021/07/28 14:07:46;;;;;;;3.58;1.80;;;;;;;;;;5031930;28;20486;-76
2021/07/28 14:10:15;;;;;;;4.47;1.95;;;;;;;;;;5031936;28;20584;-76
2021/07/28 14:12:42;;;;;;;2.60;1.45;;;;;;;;;;5031984;28;20017;-78
2021/07/28 14:15:08;;;;;;;3.63;1.60;;;;;;;;;;5031486;28;20029;-76
2021/07/28 14:17:34;;;;;;;2.10;1.40;;;;;;;;;;5032008;28;20029;-77
2021/07/28 14:20:00;;;;;;;3.80;1.55;;;;;;;;;;5032075;28;20037;-77
2021/07/28 14:22:26;;;;;;;4.95;1.90;;;;;;;;;;5031882;28;20029;-77
2021/07/28 14:24:52;;;;;;;4.68;1.67;;;;;;;;;;5031724;28;20037;-77
2021/07/28 14:27:18;;;;;;;2.47;1.58;;;;;;;;;;5013849;28;20450;-76
2021/07/28 14:29:44;;;;;;;2.97;1.52;;;;;;;;;;5031920;28;20033;-74
2021/07/28 14:32:10;;;;;;;4.25;1.58;;;;;;;;;;5031813;28;20017;-73
2021/07/28 14:34:36;;;;;;;5.45;2.05;;;;;;;;;;5032525;28;20087;-76
2021/07/28 14:37:05;;;;;;;4.53;1.60;;;;;;;;;;5035426;28;20025;-75
2021/07/28 14:39:31;;;;;;;3.80;1.60;;;;;;;;;;5035212;28;20033;-74
2021/07/28 14:41:57;;;;;;;3.45;1.60;;;;;;;;;;5035287;28;20025;-77
2021/07/28 14:44:23;;;;;;;4.38;1.50;;;;;;;;;;5035137;28;20029;-74
2021/07/28 14:46:49;;;;;;;3.40;1.70;;;;;;;;;;5035162;28;20488;-76
2021/07/28 14:49:15;;;;;;;3.35;1.83;;;;;;;;;;5035353;28;20017;-77